Time;durP1;ratioP1;P1;durP2;ratioP2;P2;SDS_P1;SDS_P2;PMS_P1;PMS_P2;Temp;Humidity;BMP_temperature;BMP_pressure;BME280_temperature;BME280_humidity;BME280_pressure;Samples;Min_cycle;Max_cycle;Signal;HPM_P1;HPM_P2
2020/12/28 00:00:32;;;;;;;10.77;7.18;;;0.50;99.90;;;;;;4974352;28;20055;-66
2020/12/28 00:02:59;;;;;;;10.13;6.82;;;0.50;99.90;;;;;;4974188;28;20047;-66
2020/12/28 00:05:26;;;;;;;8.88;6.63;;;0.60;99.90;;;;;;4973916;28;20482;-67
2020/12/28 00:07:53;;;;;;;9.02;6.50;;;0.60;99.90;;;;;;4974530;28;20496;-67
2020/12/28 00:10:20;;;;;;;11.77;7.18;;;0.60;99.90;;;;;;4965398;28;20052;-67
2020/12/28 00:12:47;;;;;;;12.27;7.82;;;0.70;99.90;;;;;;4952670;28;20054;-65
2020/12/28 00:15:17;;;;;;;13.95;8.20;;;0.70;99.90;;;;;;4974707;28;20046;-66
2020/12/28 00:17:48;;;;;;;12.75;6.90;;;0.70;99.90;;;;;;4965077;28;20051;-66
2020/12/28 00:20:16;;;;;;;10.32;6.60;;;0.60;99.90;;;;;;4974103;28;20118;-65
2020/12/28 00:22:43;;;;;;;9.95;7.20;;;0.60;99.90;;;;;;4974542;28;20501;-65
2020/12/28 00:25:09;;;;;;;9.82;6.47;;;0.60;99.90;;;;;;4967527;28;20058;-65
2020/12/28 00:27:36;;;;;;;8.52;6.57;;;0.50;99.90;;;;;;4970563;28;20405;-64
2020/12/28 00:30:06;;;;;;;10.38;7.30;;;0.60;99.90;;;;;;4964834;28;20061;-65
2020/12/28 00:32:36;;;;;;;10.23;7.20;;;0.60;99.90;;;;;;4974247;28;20055;-64
2020/12/28 00:35:04;;;;;;;10.45;7.38;;;0.60;99.90;;;;;;4973676;28;20059;-68
2020/12/28 00:37:31;;;;;;;8.85;6.70;;;0.60;99.90;;;;;;4969557;28;20047;-66
2020/12/28 00:39:57;;;;;;;11.23;7.45;;;0.60;99.90;;;;;;4973296;28;20548;-65
2020/12/28 00:42:24;;;;;;;10.00;7.20;;;0.50;99.90;;;;;;4974230;28;20081;-66
2020/12/28 00:44:52;;;;;;;10.18;7.00;;;0.60;99.90;;;;;;4973272;28;20115;-66
2020/12/28 00:47:18;;;;;;;10.68;6.93;;;0.60;99.90;;;;;;4973851;28;20082;-66
2020/12/28 00:49:44;;;;;;;8.88;6.93;;;0.60;99.90;;;;;;4973943;28;20058;-67
2020/12/28 00:52:11;;;;;;;9.50;6.80;;;0.60;99.90;;;;;;4955480;28;20051;-65
2020/12/28 00:54:37;;;;;;;8.98;6.88;;;0.60;99.90;;;;;;4973321;28;20517;-66
2020/12/28 00:57:04;;;;;;;10.48;6.93;;;0.70;99.90;;;;;;4973213;28;20050;-67
2020/12/28 00:59:30;;;;;;;8.23;6.60;;;0.70;99.90;;;;;;4973718;28;20523;-65
2020/12/28 01:01:58;;;;;;;11.32;6.57;;;0.70;99.90;;;;;;4973347;28;20485;-66
2020/12/28 01:04:25;;;;;;;9.38;6.40;;;0.80;99.90;;;;;;4972529;28;20520;-67
2020/12/28 01:06:52;;;;;;;9.82;6.53;;;0.80;99.90;;;;;;4974260;28;20050;-67
2020/12/28 01:09:19;;;;;;;11.02;6.63;;;0.80;99.90;;;;;;4972931;28;20055;-67
2020/12/28 01:11:46;;;;;;;10.70;6.50;;;0.80;99.90;;;;;;4973544;28;20051;-67
2020/12/28 01:14:13;;;;;;;10.43;6.40;;;0.80;99.90;;;;;;4973398;28;20054;-66
2020/12/28 01:16:43;;;;;;;8.95;6.47;;;0.90;99.90;;;;;;4972491;28;20054;-66
2020/12/28 01:19:09;;;;;;;9.88;6.82;;;0.80;99.90;;;;;;4971424;28;20146;-66
2020/12/28 01:21:36;;;;;;;8.82;6.22;;;0.90;99.90;;;;;;4973422;28;20057;-66
2020/12/28 01:24:03;;;;;;;10.15;6.30;;;0.80;99.90;;;;;;4973033;28;20047;-66
2020/12/28 01:26:30;;;;;;;10.25;6.90;;;0.80;99.90;;;;;;4968661;28;20269;-66
2020/12/28 01:28:57;;;;;;;10.43;6.75;;;0.80;99.90;;;;;;4972837;28;20051;-66
2020/12/28 01:31:23;;;;;;;9.52;6.43;;;0.80;99.90;;;;;;4972455;28;20054;-65
2020/12/28 01:33:50;;;;;;;9.15;6.25;;;0.80;99.90;;;;;;4973117;28;20066;-67
2020/12/28 01:36:16;;;;;;;10.60;6.05;;;0.90;99.90;;;;;;4972051;28;20413;-67
2020/12/28 01:38:43;;;;;;;10.27;6.40;;;0.90;99.90;;;;;;4968705;28;20065;-67
2020/12/28 01:41:09;;;;;;;10.23;6.47;;;0.80;99.90;;;;;;4972275;28;20061;-68
2020/12/28 01:43:36;;;;;;;10.30;6.07;;;0.80;99.90;;;;;;4954012;28;20051;-66
2020/12/28 01:46:03;;;;;;;10.10;6.40;;;0.80;99.90;;;;;;4953876;28;20043;-68
2020/12/28 01:48:30;;;;;;;10.82;7.03;;;0.80;99.90;;;;;;4969162;28;20486;-67
2020/12/28 01:50:58;;;;;;;10.30;6.28;;;0.70;99.90;;;;;;4972086;28;20394;-67
2020/12/28 01:53:25;;;;;;;8.75;6.28;;;0.80;99.90;;;;;;4970274;28;20065;-68
2020/12/28 01:55:58;;;;;;;9.15;6.00;;;0.70;99.90;;;;;;4972642;28;20067;-68
2020/12/28 01:58:24;;;;;;;;;;;0.80;99.90;;;;;;4971300;28;20057;-68
2020/12/28 02:00:50;;;;;;;10.27;6.80;;;0.80;99.90;;;;;;4954241;28;20369;-68
2020/12/28 02:03:17;;;;;;;10.23;6.30;;;0.80;99.90;;;;;;4971111;28;20046;-68
2020/12/28 02:05:44;;;;;;;8.73;6.00;;;0.80;99.90;;;;;;4971382;28;20057;-66
2020/12/28 02:08:10;;;;;;;10.15;6.05;;;0.80;99.90;;;;;;4972801;28;20054;-68
2020/12/28 02:10:37;;;;;;;10.00;6.53;;;0.80;99.90;;;;;;4971108;28;20065;-68
2020/12/28 02:13:03;;;;;;;10.15;6.55;;;0.80;99.90;;;;;;4972239;28;20061;-67
2020/12/28 02:15:30;;;;;;;9.70;6.47;;;0.90;99.90;;;;;;4970184;28;20054;-66
2020/12/28 02:17:56;;;;;;;11.93;7.20;;;0.90;99.90;;;;;;4971494;28;20052;-69
2020/12/28 02:20:23;;;;;;;9.40;6.00;;;0.90;99.90;;;;;;4971517;28;20065;-68
2020/12/28 02:22:50;;;;;;;9.57;5.85;;;1.00;99.90;;;;;;4971530;28;20053;-68
2020/12/28 02:25:16;;;;;;;9.90;5.95;;;1.00;99.90;;;;;;4972033;28;20154;-68
2020/12/28 02:27:42;;;;;;;11.98;7.03;;;1.00;99.90;;;;;;4972268;28;20050;-68
2020/12/28 02:30:09;;;;;;;9.75;6.50;;;1.10;99.90;;;;;;4971682;28;20065;-68
2020/12/28 02:32:35;;;;;;;11.55;6.32;;;1.10;99.90;;;;;;4972439;28;20069;-67
2020/12/28 02:35:03;;;;;;;9.40;6.30;;;1.20;99.90;;;;;;4971620;28;20046;-68
2020/12/28 02:37:30;;;;;;;11.77;6.07;;;1.20;99.90;;;;;;4971988;28;20049;-68
2020/12/28 02:39:57;;;;;;;10.35;5.80;;;1.20;99.90;;;;;;4971502;28;20081;-67
2020/12/28 02:42:23;;;;;;;7.45;5.13;;;1.20;99.90;;;;;;4962458;28;20054;-68
2020/12/28 02:44:49;;;;;;;11.23;5.55;;;1.20;99.90;;;;;;4948376;28;20051;-67
2020/12/28 02:47:16;;;;;;;10.63;6.30;;;1.30;99.90;;;;;;4971637;28;20409;-65
2020/12/28 02:49:42;;;;;;;8.75;6.32;;;1.20;99.90;;;;;;4971208;28;20486;-66
2020/12/28 02:52:09;;;;;;;9.32;6.00;;;1.30;99.90;;;;;;4970937;28;20059;-66
2020/12/28 02:54:35;;;;;;;10.38;5.90;;;1.20;99.90;;;;;;4970797;28;20408;-66
2020/12/28 02:57:02;;;;;;;8.25;5.70;;;1.30;99.90;;;;;;4971061;28;20046;-66
2020/12/28 02:59:28;;;;;;;10.30;6.10;;;1.30;99.90;;;;;;4971107;28;20046;-67
2020/12/28 03:01:55;;;;;;;11.07;6.43;;;1.30;99.90;;;;;;4970094;28;20054;-67
2020/12/28 03:04:21;;;;;;;10.77;6.30;;;1.30;99.90;;;;;;4953172;28;20050;-66
2020/12/28 03:06:48;;;;;;;9.38;5.85;;;1.30;99.90;;;;;;4970776;28;20058;-67
2020/12/28 03:09:15;;;;;;;10.57;5.82;;;1.40;99.90;;;;;;4970256;28;20054;-67
2020/12/28 03:11:43;;;;;;;10.70;6.15;;;1.40;99.90;;;;;;4970135;28;20055;-66
2020/12/28 03:14:09;;;;;;;9.43;5.57;;;1.40;99.90;;;;;;4970818;28;20417;-67
2020/12/28 03:16:36;;;;;;;9.43;5.90;;;1.40;99.90;;;;;;4970844;28;20051;-68
2020/12/28 03:19:02;;;;;;;9.95;5.72;;;1.40;99.90;;;;;;4969435;28;20046;-66
2020/12/28 03:21:29;;;;;;;10.95;5.88;;;1.30;99.90;;;;;;4966797;28;20532;-66
2020/12/28 03:23:55;;;;;;;11.52;6.10;;;1.30;99.90;;;;;;4970499;28;20047;-66
2020/12/28 03:26:22;;;;;;;8.75;5.85;;;1.30;99.90;;;;;;4971472;28;20047;-67
2020/12/28 03:29:07;;;;;;;9.80;5.93;;;1.30;99.90;;;;;;4965981;28;20054;-67
2020/12/28 03:31:34;;;;;;;10.05;6.03;;;1.30;99.90;;;;;;4954558;28;20053;-66
2020/12/28 03:34:00;;;;;;;10.55;6.68;;;1.30;99.90;;;;;;4970862;28;20047;-69
2020/12/28 03:36:27;;;;;;;9.60;6.25;;;1.30;99.90;;;;;;4967847;28;20051;-67
2020/12/28 03:38:53;;;;;;;11.90;6.47;;;1.30;99.90;;;;;;4952724;28;20054;-67
2020/12/28 03:41:19;;;;;;;9.60;6.60;;;1.30;99.90;;;;;;4969152;28;20054;-66
2020/12/28 03:43:46;;;;;;;11.50;6.85;;;1.30;99.90;;;;;;4970730;28;20054;-67
2020/12/28 03:46:13;;;;;;;10.38;6.57;;;1.30;99.90;;;;;;4970262;28;20158;-67
2020/12/28 03:48:39;;;;;;;10.43;6.55;;;1.30;99.90;;;;;;4970104;28;20043;-67
2020/12/28 03:51:05;;;;;;;10.82;6.80;;;1.30;99.90;;;;;;4970660;28;20074;-67
2020/12/28 03:53:32;;;;;;;9.60;6.25;;;1.30;99.90;;;;;;4970301;28;20065;-67
2020/12/28 03:55:58;;;;;;;11.23;6.18;;;1.30;99.90;;;;;;4970008;28;20051;-68
2020/12/28 03:58:25;;;;;;;10.73;6.78;;;1.30;99.90;;;;;;4971197;28;20574;-67
2020/12/28 04:00:52;;;;;;;10.10;5.90;;;1.30;99.90;;;;;;4970289;28;20468;-66
2020/12/28 04:03:19;;;;;;;11.82;6.72;;;1.30;99.90;;;;;;4968969;28;20054;-67
2020/12/28 04:05:45;;;;;;;9.73;6.35;;;1.30;99.90;;;;;;4970787;28;20049;-67
2020/12/28 04:08:12;;;;;;;11.40;6.50;;;1.30;99.90;;;;;;4971590;28;20051;-66
2020/12/28 04:10:39;;;;;;;11.57;6.93;;;1.30;99.90;;;;;;4971056;28;20073;-67
2020/12/28 04:13:06;;;;;;;9.93;5.97;;;1.30;99.90;;;;;;4973987;28;20055;-66
2020/12/28 04:15:32;;;;;;;10.45;6.32;;;1.30;99.90;;;;;;4973499;28;20544;-66
2020/12/28 04:17:59;;;;;;;10.98;6.75;;;1.30;99.90;;;;;;4972494;28;20054;-65
2020/12/28 04:20:25;;;;;;;9.27;6.32;;;1.30;99.90;;;;;;4973776;28;20420;-65
2020/12/28 04:22:52;;;;;;;12.18;6.80;;;1.30;99.90;;;;;;4973657;28;20061;-65
2020/12/28 04:25:19;;;;;;;10.57;5.68;;;1.30;99.90;;;;;;4956248;28;20053;-68
2020/12/28 04:27:45;;;;;;;10.75;6.88;;;1.20;99.90;;;;;;4974224;28;20043;-67
2020/12/28 04:30:12;;;;;;;11.38;6.82;;;1.20;99.90;;;;;;4972125;28;20831;-67
2020/12/28 04:32:39;;;;;;;10.05;6.55;;;1.20;99.90;;;;;;4973249;28;20082;-66
2020/12/28 04:35:06;;;;;;;13.73;6.40;;;1.20;99.90;;;;;;4974045;28;20050;-66
2020/12/28 04:37:33;;;;;;;11.35;7.40;;;1.20;99.90;;;;;;4955963;28;20057;-67
2020/12/28 04:39:59;;;;;;;11.63;6.45;;;1.20;99.90;;;;;;4973641;28;20042;-67
2020/12/28 04:42:27;;;;;;;10.95;6.65;;;1.10;99.90;;;;;;4974459;28;20057;-67
2020/12/28 04:44:54;;;;;;;9.93;6.57;;;1.10;99.90;;;;;;4960264;28;20095;-66
2020/12/28 04:47:21;;;;;;;10.73;5.75;;;1.10;99.90;;;;;;4968206;28;20066;-67
2020/12/28 04:49:48;;;;;;;11.35;7.10;;;1.00;99.90;;;;;;4956993;28;20378;-66
2020/12/28 04:52:15;;;;;;;11.93;7.20;;;1.00;99.90;;;;;;4972881;28;20049;-65
2020/12/28 04:54:43;;;;;;;11.63;7.00;;;1.10;99.90;;;;;;4971604;28;20057;-66
2020/12/28 04:57:10;;;;;;;13.57;7.18;;;1.00;99.90;;;;;;4971554;28;20069;-67
2020/12/28 04:59:37;;;;;;;11.77;6.95;;;1.00;99.90;;;;;;4972024;28;20082;-67
2020/12/28 05:02:04;;;;;;;10.15;6.25;;;1.10;99.90;;;;;;4972289;28;20058;-67
2020/12/28 05:04:31;;;;;;;11.63;7.40;;;1.10;99.90;;;;;;4972475;28;20247;-66
2020/12/28 05:07:02;;;;;;;13.63;8.73;;;1.10;99.90;;;;;;4973085;28;20416;-66
2020/12/28 05:09:28;;;;;;;14.07;7.80;;;1.20;99.90;;;;;;4955284;28;20055;-66
2020/12/28 05:11:59;;;;;;;13.68;7.30;;;1.30;99.90;;;;;;4972412;28;20043;-67
2020/12/28 05:14:26;;;;;;;13.47;7.07;;;1.30;99.90;;;;;;4972166;28;20062;-66
2020/12/28 05:17:02;;;;;;;11.43;7.10;;;1.30;99.90;;;;;;4972672;28;20465;-65
2020/12/28 05:19:30;;;;;;;11.27;6.55;;;1.30;99.90;;;;;;4971088;28;20133;-66
2020/12/28 05:21:58;;;;;;;10.30;6.63;;;1.30;99.90;;;;;;4972188;28;20102;-65
2020/12/28 05:24:25;;;;;;;9.68;6.30;;;1.30;99.90;;;;;;4970968;28;20050;-68
2020/12/28 05:26:54;;;;;;;12.82;7.47;;;1.30;99.90;;;;;;4973614;28;20482;-65
2020/12/28 05:29:23;;;;;;;13.90;7.63;;;1.30;99.90;;;;;;4972486;28;20051;-65
2020/12/28 05:31:53;;;;;;;12.55;7.03;;;1.30;99.90;;;;;;4972956;28;20054;-65
2020/12/28 05:34:28;;;;;;;12.07;7.60;;;1.30;99.90;;;;;;4973304;28;20050;-66
2020/12/28 05:36:57;;;;;;;10.77;6.78;;;1.30;99.90;;;;;;4971272;28;20043;-66
2020/12/28 05:39:27;;;;;;;13.23;6.97;;;1.30;99.90;;;;;;4971665;28;20061;-66
2020/12/28 05:42:09;;;;;;;10.35;6.80;;;1.30;99.90;;;;;;4969105;28;20087;-66
2020/12/28 05:44:37;;;;;;;12.55;7.22;;;1.40;99.90;;;;;;4964476;28;20046;-65
2020/12/28 05:47:12;;;;;;;14.45;7.95;;;1.40;99.90;;;;;;4972126;28;20054;-66
2020/12/28 05:49:42;;;;;;;10.75;7.13;;;1.40;99.90;;;;;;4971328;28;20054;-66
2020/12/28 05:52:13;;;;;;;10.82;7.07;;;1.40;99.90;;;;;;4955248;28;20055;-64
2020/12/28 05:54:40;;;;;;;13.17;7.50;;;1.40;99.90;;;;;;4974295;28;20425;-66
2020/12/28 05:57:07;;;;;;;11.98;7.53;;;1.40;99.90;;;;;;4951883;28;20313;-65
2020/12/28 05:59:35;;;;;;;11.88;7.35;;;1.40;99.90;;;;;;4972587;28;20137;-65
2020/12/28 06:02:03;;;;;;;10.68;6.63;;;1.40;99.90;;;;;;4972183;28;20043;-64
2020/12/28 06:04:29;;;;;;;12.15;6.95;;;1.40;99.90;;;;;;4971379;28;20051;-65
2020/12/28 06:07:03;;;;;;;11.93;7.70;;;1.40;99.90;;;;;;4972760;28;20125;-67
2020/12/28 06:09:30;;;;;;;12.52;7.53;;;1.40;99.90;;;;;;4964584;28;20134;-64
2020/12/28 06:12:07;;;;;;;12.48;7.13;;;1.40;99.90;;;;;;4972767;28;20496;-64
2020/12/28 06:14:36;;;;;;;11.02;7.15;;;1.40;99.90;;;;;;4967217;28;20072;-64
2020/12/28 06:17:11;;;;;;;11.55;7.47;;;1.30;99.90;;;;;;4984735;28;20050;-65
2020/12/28 06:19:40;;;;;;;12.73;7.60;;;1.40;99.90;;;;;;4975181;28;20050;-64
2020/12/28 06:22:20;;;;;;;12.38;7.22;;;1.30;99.90;;;;;;4978974;28;20055;-66
2020/12/28 06:25:12;;;;;;;14.10;8.10;;;1.30;99.90;;;;;;4967716;28;20437;-65
2020/12/28 06:27:42;;;;;;;11.57;7.25;;;1.30;99.90;;;;;;4971355;28;20042;-65
2020/12/28 06:30:15;;;;;;;13.40;7.90;;;1.30;99.90;;;;;;4968801;28;20051;-65
2020/12/28 06:32:48;;;;;;;12.13;7.55;;;1.20;99.90;;;;;;4969180;28;20628;-65
2020/12/28 06:35:17;;;;;;;12.82;7.80;;;1.20;99.90;;;;;;4971097;28;20043;-64
2020/12/28 06:37:48;;;;;;;11.50;7.40;;;1.20;99.90;;;;;;4971293;28;20051;-66
2020/12/28 06:40:29;;;;;;;11.60;7.07;;;1.10;99.90;;;;;;4971255;28;20057;-67
2020/12/28 06:43:15;;;;;;;11.50;6.93;;;1.10;99.90;;;;;;4966273;28;20130;-67
2020/12/28 06:45:44;;;;;;;11.75;7.38;;;1.10;99.90;;;;;;4969488;28;20508;-67
2020/12/28 06:48:21;;;;;;;12.95;7.85;;;1.00;99.90;;;;;;4971629;28;20051;-67
2020/12/28 06:50:48;;;;;;;12.90;7.43;;;1.00;99.90;;;;;;4968475;28;20049;-67
2020/12/28 06:53:34;;;;;;;16.35;8.20;;;1.00;99.90;;;;;;4955143;28;20051;-66
2020/12/28 06:56:08;;;;;;;11.45;7.55;;;1.00;99.90;;;;;;4953578;28;20057;-66
2020/12/28 06:58:35;;;;;;;11.98;7.80;;;1.00;99.90;;;;;;4971247;28;20051;-66
2020/12/28 07:01:04;;;;;;;13.02;7.72;;;1.00;99.90;;;;;;4968593;28;20047;-67
2020/12/28 07:03:30;;;;;;;10.93;7.03;;;0.90;99.90;;;;;;4961224;28;20051;-68
2020/12/28 07:06:04;;;;;;;13.93;7.75;;;1.00;99.90;;;;;;4970653;28;20042;-67
2020/12/28 07:08:37;;;;;;;12.88;8.23;;;0.90;99.90;;;;;;4962413;28;20054;-67
2020/12/28 07:11:05;;;;;;;13.35;7.53;;;0.90;99.90;;;;;;4968176;28;20486;-67
2020/12/28 07:13:32;;;;;;;11.40;7.38;;;0.90;99.90;;;;;;4963609;28;20046;-67
2020/12/28 07:16:06;;;;;;;12.50;7.95;;;0.90;99.90;;;;;;4970652;28;20063;-65
2020/12/28 07:18:33;;;;;;;12.45;7.90;;;1.00;99.90;;;;;;4951391;28;20406;-67
2020/12/28 07:21:01;;;;;;;12.55;7.95;;;1.00;99.90;;;;;;4970966;28;20126;-67
2020/12/28 07:23:29;;;;;;;12.90;7.63;;;1.00;99.90;;;;;;4971544;28;20126;-67
2020/12/28 07:26:11;;;;;;;12.02;7.80;;;1.00;99.90;;;;;;4971204;28;20065;-68
2020/12/28 07:28:39;;;;;;;;;;;1.10;99.90;;;;;;4972452;28;20354;-67
2020/12/28 07:31:07;;;;;;;11.75;6.93;;;1.10;99.90;;;;;;4970920;28;19926;-67
2020/12/28 07:33:34;;;;;;;14.57;7.63;;;1.20;99.90;;;;;;4971447;28;20482;-68
2020/12/28 07:36:08;;;;;;;15.98;7.18;;;1.20;99.90;;;;;;4953765;28;20125;-67
2020/12/28 07:38:36;;;;;;;11.63;6.50;;;1.30;99.90;;;;;;4970292;28;20101;-66
2020/12/28 07:41:05;;;;;;;11.75;6.78;;;1.30;99.90;;;;;;4971017;28;20061;-65
2020/12/28 07:43:31;;;;;;;14.10;7.53;;;1.30;99.90;;;;;;4970788;28;20046;-67
2020/12/28 07:46:19;;;;;;;12.00;7.05;;;1.30;99.90;;;;;;4971250;28;20042;-66
2020/12/28 07:48:47;;;;;;;12.40;7.20;;;1.40;99.90;;;;;;4919634;28;20208;-66
2020/12/28 07:51:18;;;;;;;11.48;6.95;;;1.40;99.90;;;;;;4974095;28;20070;-68
2020/12/28 07:53:51;;;;;;;10.97;6.83;;;1.40;99.90;;;;;;4973189;28;20054;-67
2020/12/28 07:56:33;;;;;;;12.75;6.90;;;1.50;99.90;;;;;;4973777;28;20329;-66
2020/12/28 07:59:48;;;;;;;11.18;6.93;;;1.50;99.90;;;;;;4973595;28;20057;-68
2020/12/28 08:02:24;;;;;;;12.02;6.72;;;1.60;99.90;;;;;;4974141;28;20144;-68
2020/12/28 08:04:51;;;;;;;11.85;7.20;;;1.60;99.90;;;;;;4971397;28;20046;-67
2020/12/28 08:07:22;;;;;;;10.90;6.80;;;1.70;99.90;;;;;;4965061;28;20058;-66
2020/12/28 08:09:56;;;;;;;12.40;7.57;;;1.70;99.90;;;;;;4969190;28;20068;-67
2020/12/28 08:12:22;;;;;;;12.43;6.95;;;1.70;99.90;;;;;;4965753;28;20606;-67
2020/12/28 08:14:56;;;;;;;11.57;7.55;;;1.80;99.90;;;;;;4971490;28;20081;-68
2020/12/28 08:17:31;;;;;;;10.80;6.63;;;1.80;99.90;;;;;;4973794;28;20050;-67
2020/12/28 08:20:05;;;;;;;12.68;7.47;;;1.90;99.90;;;;;;4974633;28;20123;-66
2020/12/28 08:22:31;;;;;;;9.82;6.80;;;2.00;99.90;;;;;;4970127;28;20063;-67
2020/12/28 08:24:59;;;;;;;12.85;7.80;;;2.10;99.90;;;;;;4974221;28;20047;-67
2020/12/28 08:27:32;;;;;;;9.82;6.93;;;2.20;99.90;;;;;;4955940;28;20066;-67
2020/12/28 08:30:00;;;;;;;12.85;7.20;;;2.30;99.90;;;;;;4973476;28;20053;-67
2020/12/28 08:32:30;;;;;;;10.35;7.13;;;2.30;99.90;;;;;;4973385;28;20477;-67
2020/12/28 08:34:58;;;;;;;10.82;6.97;;;2.40;99.90;;;;;;4953863;28;20122;-67
2020/12/28 08:37:32;;;;;;;10.80;7.10;;;2.50;99.90;;;;;;4973837;28;20042;-67
2020/12/28 08:39:59;;;;;;;9.77;6.80;;;2.50;99.90;;;;;;4973199;28;20043;-66
2020/12/28 08:42:35;;;;;;;10.90;6.85;;;2.50;99.90;;;;;;4973613;28;20058;-67
2020/12/28 08:45:02;;;;;;;13.43;7.40;;;2.60;99.90;;;;;;4969259;28;20050;-66
2020/12/28 08:47:29;;;;;;;13.25;8.30;;;2.60;99.90;;;;;;4972961;28;20509;-67
2020/12/28 08:49:56;;;;;;;11.75;7.40;;;2.70;99.90;;;;;;4972159;28;20054;-67
2020/12/28 08:52:24;;;;;;;13.77;8.07;;;2.80;99.90;;;;;;4972725;28;20051;-71
2020/12/28 08:55:00;;;;;;;12.07;8.32;;;2.80;99.90;;;;;;4972805;28;20077;-68
2020/12/28 08:57:29;;;;;;;12.82;7.35;;;2.90;99.90;;;;;;4950991;28;20607;-67
2020/12/28 08:59:58;;;;;;;13.57;8.13;;;3.00;99.90;;;;;;4956814;28;20089;-66
2020/12/28 09:02:26;;;;;;;13.52;7.20;;;3.10;99.90;;;;;;4970253;28;20591;-67
2020/12/28 09:04:54;;;;;;;14.20;8.48;;;3.10;99.90;;;;;;4971123;28;20568;-67
2020/12/28 09:07:22;;;;;;;10.90;7.35;;;3.20;99.90;;;;;;4968350;28;20047;-67
2020/12/28 09:09:49;;;;;;;16.23;9.40;;;3.30;99.90;;;;;;4972965;28;20043;-67
2020/12/28 09:12:18;;;;;;;13.65;8.45;;;3.40;99.90;;;;;;4972839;28;20062;-69
2020/12/28 09:14:44;;;;;;;13.10;8.55;;;3.40;99.90;;;;;;4968333;28;20053;-67
2020/12/28 09:17:17;;;;;;;11.85;8.65;;;3.50;99.90;;;;;;4973948;28;20122;-68
2020/12/28 09:19:44;;;;;;;13.00;8.48;;;3.50;99.90;;;;;;4972840;28;20050;-67
2020/12/28 09:22:10;;;;;;;12.63;7.97;;;3.60;99.90;;;;;;4973548;28;20536;-67
2020/12/28 09:24:37;;;;;;;15.13;8.18;;;3.60;99.90;;;;;;4971897;28;20061;-67
2020/12/28 09:27:04;;;;;;;14.35;8.65;;;3.70;99.90;;;;;;4973018;28;20123;-67
2020/12/28 09:29:30;;;;;;;13.75;7.95;;;3.70;99.90;;;;;;4971873;28;20137;-67
2020/12/28 09:31:57;;;;;;;12.15;7.82;;;3.80;99.90;;;;;;4972826;28;20053;-68
2020/12/28 09:34:23;;;;;;;11.30;7.85;;;3.80;99.90;;;;;;4971731;28;20047;-68
2020/12/28 09:37:00;;;;;;;11.82;7.22;;;3.90;99.90;;;;;;4972156;28;20074;-67
2020/12/28 09:39:27;;;;;;;11.68;8.18;;;4.00;99.90;;;;;;4971888;28;20054;-66
2020/12/28 09:41:54;;;;;;;12.43;8.05;;;3.90;99.90;;;;;;4971693;28;20501;-67
2020/12/28 09:44:21;;;;;;;12.23;8.13;;;3.90;99.90;;;;;;4972510;28;20058;-67
2020/12/28 09:46:49;;;;;;;13.52;8.13;;;3.80;99.90;;;;;;4972342;28;20050;-67
2020/12/28 09:49:16;;;;;;;13.10;8.43;;;3.80;99.90;;;;;;4972524;28;20507;-67
2020/12/28 09:51:47;;;;;;;11.60;7.60;;;3.80;99.90;;;;;;4973249;28;20039;-67
2020/12/28 09:54:14;;;;;;;15.30;7.68;;;3.80;99.90;;;;;;4972040;28;20050;-66
2020/12/28 09:57:04;;;;;;;11.43;7.05;;;3.70;99.90;;;;;;4971386;28;20058;-68
2020/12/28 09:59:51;;;;;;;11.00;8.07;;;3.70;99.90;;;;;;4964182;28;20054;-67
2020/12/28 10:02:17;;;;;;;10.75;7.38;;;3.60;99.90;;;;;;4972167;28;20047;-67
2020/12/28 10:04:44;;;;;;;10.93;7.43;;;3.60;99.90;;;;;;4970762;28;20174;-67
2020/12/28 10:07:10;;;;;;;10.23;7.30;;;3.60;99.90;;;;;;4972013;28;20076;-67
2020/12/28 10:09:36;;;;;;;11.85;7.93;;;3.60;99.90;;;;;;4971358;28;20056;-68
2020/12/28 10:12:03;;;;;;;11.45;7.43;;;3.60;99.90;;;;;;4970726;28;20038;-72
2020/12/28 10:14:30;;;;;;;12.25;7.50;;;3.50;99.90;;;;;;4970741;28;20042;-72
2020/12/28 10:16:56;;;;;;;11.00;7.30;;;3.50;99.90;;;;;;4971727;28;20432;-71
2020/12/28 10:19:23;;;;;;;10.77;7.30;;;3.50;99.90;;;;;;4972129;28;20482;-73
2020/12/28 10:21:49;;;;;;;11.00;7.43;;;3.50;99.90;;;;;;4971091;28;20050;-71
2020/12/28 10:24:16;;;;;;;10.65;7.85;;;3.50;99.90;;;;;;4971572;28;20058;-73
2020/12/28 10:26:42;;;;;;;12.23;8.52;;;3.40;99.90;;;;;;4971924;28;20102;-74
2020/12/28 10:29:09;;;;;;;15.23;8.00;;;3.40;99.90;;;;;;4971952;28;20150;-71
2020/12/28 10:31:35;;;;;;;11.68;8.15;;;3.40;99.90;;;;;;4970553;28;20405;-73
2020/12/28 10:34:02;;;;;;;12.60;7.80;;;3.40;99.90;;;;;;4960944;28;20055;-71
2020/12/28 10:36:29;;;;;;;12.30;7.75;;;3.40;99.90;;;;;;4953612;28;20047;-72
2020/12/28 10:38:59;;;;;;;12.40;7.68;;;3.40;99.90;;;;;;4955098;28;20045;-72
2020/12/28 10:41:27;;;;;;;9.75;7.18;;;3.50;99.90;;;;;;4971804;28;20081;-72
2020/12/28 10:43:55;;;;;;;9.55;7.53;;;3.50;99.90;;;;;;4954118;28;20450;-73
2020/12/28 10:46:22;;;;;;;12.07;7.97;;;3.50;99.90;;;;;;4967252;28;20047;-73
2020/12/28 10:48:49;;;;;;;12.90;8.80;;;3.60;99.90;;;;;;4953312;28;20138;-71
2020/12/28 10:51:16;;;;;;;11.05;7.45;;;3.50;99.90;;;;;;4971953;28;20055;-74
2020/12/28 10:53:42;;;;;;;11.73;7.57;;;3.50;99.90;;;;;;4972323;28;20504;-73
2020/12/28 10:56:09;;;;;;;9.82;7.35;;;3.50;99.90;;;;;;4972263;28;20057;-72
2020/12/28 10:58:35;;;;;;;12.30;8.70;;;3.40;99.90;;;;;;4972050;28;20054;-70
2020/12/28 11:01:05;;;;;;;14.55;9.18;;;3.50;99.90;;;;;;4971958;28;20051;-72
2020/12/28 11:03:31;;;;;;;13.93;8.43;;;3.50;99.90;;;;;;4953401;28;20050;-71
2020/12/28 11:06:01;;;;;;;13.88;7.95;;;3.50;99.90;;;;;;4967762;28;20461;-71
2020/12/28 11:08:28;;;;;;;12.55;7.97;;;3.40;99.90;;;;;;4964811;28;20058;-73
2020/12/28 11:10:55;;;;;;;13.55;8.95;;;3.40;99.90;;;;;;4963367;28;20493;-72
2020/12/28 11:13:21;;;;;;;22.55;13.93;;;3.50;99.90;;;;;;4971488;28;20598;-71
2020/12/28 11:15:48;;;;;;;17.98;11.25;;;3.50;99.90;;;;;;4970060;28;20057;-71
2020/12/28 11:18:15;;;;;;;12.50;8.82;;;3.60;99.90;;;;;;4970779;28;20051;-71
2020/12/28 11:20:42;;;;;;;13.55;8.73;;;3.60;99.90;;;;;;4971563;28;20051;-73
2020/12/28 11:23:08;;;;;;;12.65;8.52;;;3.70;99.90;;;;;;4975329;28;20043;-73
2020/12/28 11:25:35;;;;;;;13.57;8.23;;;3.80;99.90;;;;;;4975516;28;20062;-72
2020/12/28 11:28:01;;;;;;;15.27;8.73;;;3.80;99.90;;;;;;4973897;28;20051;-71
2020/12/28 11:30:28;;;;;;;11.85;8.38;;;3.80;99.90;;;;;;4975865;28;20058;-71
2020/12/28 11:32:54;;;;;;;13.23;8.23;;;3.90;99.90;;;;;;4975290;28;20043;-71
2020/12/28 11:35:21;;;;;;;11.80;8.15;;;3.80;99.90;;;;;;4976249;28;20141;-70
2020/12/28 11:37:48;;;;;;;13.82;8.18;;;3.90;99.90;;;;;;4971108;28;20058;-71
2020/12/28 11:40:16;;;;;;;13.05;7.40;;;3.90;99.90;;;;;;4974574;28;20137;-71
2020/12/28 11:42:43;;;;;;;11.50;7.68;;;3.80;99.90;;;;;;4974089;28;20064;-71
2020/12/28 11:45:09;;;;;;;11.77;8.38;;;3.80;99.90;;;;;;4974487;28;20057;-71
2020/12/28 11:47:36;;;;;;;16.77;11.20;;;3.80;99.90;;;;;;4957036;28;20134;-71
2020/12/28 11:50:06;;;;;;;16.27;8.95;;;3.90;99.90;;;;;;4973963;28;20405;-71
2020/12/28 11:52:33;;;;;;;11.63;8.68;;;3.90;99.90;;;;;;4974438;28;20050;-70
2020/12/28 11:55:00;;;;;;;12.82;8.15;;;3.90;99.90;;;;;;4974336;28;20051;-71
2020/12/28 11:57:26;;;;;;;19.20;11.13;;;4.00;99.90;;;;;;4956874;28;20066;-70
2020/12/28 11:59:53;;;;;;;15.25;9.68;;;4.00;99.90;;;;;;4956629;28;20050;-71
2020/12/28 12:02:20;;;;;;;14.45;9.25;;;4.00;99.90;;;;;;4974742;28;20042;-70
2020/12/28 12:04:54;;;;;;;15.52;8.88;;;4.10;99.90;;;;;;4956198;28;20559;-70
2020/12/28 12:07:21;;;;;;;;;;;4.00;99.90;;;;;;4966875;28;20047;-70
2020/12/28 12:09:49;;;;;;;12.40;8.23;;;4.00;99.90;;;;;;4970954;28;19926;-71
2020/12/28 12:12:17;;;;;;;11.65;8.15;;;4.00;99.90;;;;;;4956583;28;20054;-70
2020/12/28 12:14:43;;;;;;;12.25;8.20;;;4.00;99.90;;;;;;4974744;28;20061;-71
2020/12/28 12:17:10;;;;;;;16.98;9.07;;;4.00;99.90;;;;;;4957236;28;20402;-71
2020/12/28 12:19:37;;;;;;;13.80;8.15;;;4.00;99.90;;;;;;4974224;28;20398;-71
2020/12/28 12:22:04;;;;;;;12.68;8.38;;;4.00;99.90;;;;;;4973909;28;20062;-71
2020/12/28 12:24:31;;;;;;;15.13;8.82;;;4.00;99.90;;;;;;4954837;28;20145;-71
2020/12/28 12:26:57;;;;;;;16.10;8.90;;;4.00;99.90;;;;;;4956949;28;20531;-72
2020/12/28 12:29:24;;;;;;;12.43;8.43;;;4.00;99.90;;;;;;4973494;28;20053;-72
2020/12/28 12:31:51;;;;;;;12.90;8.23;;;4.00;99.90;;;;;;4971877;28;20130;-71
2020/12/28 12:34:19;;;;;;;16.73;9.60;;;4.00;99.90;;;;;;4955983;28;20107;-71
2020/12/28 12:36:46;;;;;;;13.73;8.55;;;4.00;99.90;;;;;;4956078;28;20485;-72
2020/12/28 12:39:12;;;;;;;16.98;9.93;;;4.00;99.90;;;;;;4973345;28;20057;-73
2020/12/28 12:41:40;;;;;;;21.17;14.00;;;4.00;99.90;;;;;;4972522;28;20047;-71
2020/12/28 12:44:06;;;;;;;18.88;10.55;;;4.00;99.90;;;;;;4954451;29;20058;-72
2020/12/28 12:46:33;;;;;;;14.57;8.95;;;4.00;99.90;;;;;;4954877;29;20047;-71
2020/12/28 12:49:00;;;;;;;13.32;8.48;;;4.00;99.90;;;;;;4959253;28;20371;-71
2020/12/28 12:51:27;;;;;;;12.02;8.18;;;3.90;99.90;;;;;;4951367;28;20086;-71
2020/12/28 12:53:54;;;;;;;12.80;8.43;;;3.90;99.90;;;;;;4971333;28;20042;-71